Enter the Airport ICAO Code

Search by Airport or City

Current Weather

LEPP | Pamplona Airport

Pamplona, Navarre, Spain

Last Update 15 Minutes Ago

Sky with Few Clouds

Temperature of 24 ºC

Moderate Winds from NorthWest

Temperature

24 ºC

Dew Point Temperature

11 ºC

Relative Humidity

44.2 %

Wind Direction

NorthWest (320º, Ranging from 290º to 350º)

Wind Velocity

26 km/h (14 kt)

Gusts

None

Visibility

Greater than 10 Kilometers

Sea Level Pressure

1023 hPa (Hectopascals)

Layers of Clouds

5% to 30% of Sky Covered from 1219 mts (4000 ft) Above Ground Level.

METAR LEPP 131030Z 32014KT 290V350 9999 FEW040 24/11 Q1023

Weather Forecast

LEPP | Pamplona Airport

Pamplona, Navarre, Spain

Forecast valid for the next 22 Hours

From now on it is expected:

Sky with Few Clouds

Moderate Winds from North

In 9 to 13 hours it is expected the begining of:

Light to Moderate Winds from NorthWest

Maximum Temperature

26 ºC in 2 Hours

Minimum Temperature

14 ºC in 18 Hours

TAF LEPP 130800Z 1309/1409 36015KT 9999 FEW040 TX26/1313Z TN14/1405Z BECMG 1320/1324 33005KT